sensor_id;sensor_type;location;lat;lon;timestamp;pressure;altitude;pressure_sealevel;temperature;humidity
62592;BME280;48659;41.622;2.276;2024-03-29T21:31:44;97911.16;;;13.93;56.37
62592;BME280;48659;41.622;2.276;2024-03-29T21:32:45;97915.01;;;13.06;55.99
62592;BME280;48659;41.622;2.276;2024-03-29T21:35:15;97922.23;;;14.18;53.80
62592;BME280;48659;41.622;2.276;2024-03-29T21:37:43;97924.08;;;13.76;54.70
62592;BME280;48659;41.622;2.276;2024-03-29T21:40:11;97930.99;;;15.50;53.06
62592;BME280;48659;41.622;2.276;2024-03-29T21:42:39;97936.83;;;13.94;55.51
62592;BME280;48659;41.622;2.276;2024-03-29T21:45:08;97943.22;;;15.50;52.73
62592;BME280;48659;41.622;2.276;2024-03-29T21:47:35;97937.31;;;16.19;50.90
62592;BME280;48659;41.622;2.276;2024-03-29T21:50:03;97933.59;;;14.75;54.01
62592;BME280;48659;41.622;2.276;2024-03-29T21:52:31;97934.22;;;14.93;54.05
62592;BME280;48659;41.622;2.276;2024-03-29T21:54:59;97940.49;;;15.55;52.58
62592;BME280;48659;41.622;2.276;2024-03-29T21:57:27;97943.08;;;15.77;50.94
62592;BME280;48659;41.622;2.276;2024-03-29T21:59:54;97943.48;;;16.43;49.47
62592;BME280;48659;41.622;2.276;2024-03-29T22:02:22;97931.83;;;17.09;47.41
62592;BME280;48659;41.622;2.276;2024-03-29T22:04:49;97931.46;;;17.65;45.73
62592;BME280;48659;41.622;2.276;2024-03-29T22:07:17;97915.79;;;16.37;46.99
62592;BME280;48659;41.622;2.276;2024-03-29T22:09:44;97918.83;;;15.27;50.83
62592;BME280;48659;41.622;2.276;2024-03-29T22:12:12;97934.29;;;15.84;50.20
62592;BME280;48659;41.622;2.276;2024-03-29T22:14:39;97931.88;;;14.65;51.80
62592;BME280;48659;41.622;2.276;2024-03-29T22:17:06;97921.32;;;14.27;53.57
62592;BME280;48659;41.622;2.276;2024-03-29T22:19:33;97895.47;;;14.76;53.63
62592;BME280;48659;41.622;2.276;2024-03-29T22:22:00;97892.48;;;15.29;51.27
62592;BME280;48659;41.622;2.276;2024-03-29T22:24:28;97911.35;;;15.31;51.76
62592;BME280;48659;41.622;2.276;2024-03-29T22:26:55;97913.19;;;16.00;50.19
62592;BME280;48659;41.622;2.276;2024-03-29T22:29:22;97912.03;;;15.92;49.57
62592;BME280;48659;41.622;2.276;2024-03-29T22:31:50;97920.93;;;14.79;52.24
62592;BME280;48659;41.622;2.276;2024-03-29T22:34:18;97912.48;;;15.18;51.22
62592;BME280;48659;41.622;2.276;2024-03-29T22:36:46;97911.54;;;17.30;47.10
62592;BME280;48659;41.622;2.276;2024-03-29T22:39:13;97909.47;;;16.23;48.20
62592;BME280;48659;41.622;2.276;2024-03-29T22:41:40;97908.38;;;17.65;46.34
62592;BME280;48659;41.622;2.276;2024-03-29T22:44:08;97913.72;;;17.20;46.08
62592;BME280;48659;41.622;2.276;2024-03-29T22:46:35;97914.67;;;17.83;45.43
62592;BME280;48659;41.622;2.276;2024-03-29T22:49:02;97916.92;;;17.77;45.07
62592;BME280;48659;41.622;2.276;2024-03-29T22:51:29;97910.09;;;17.97;44.55
62592;BME280;48659;41.622;2.276;2024-03-29T22:53:56;97898.15;;;18.17;43.92
62592;BME280;48659;41.622;2.276;2024-03-29T22:56:23;97899.20;;;17.87;44.70
62592;BME280;48659;41.622;2.276;2024-03-29T22:58:51;97887.58;;;16.66;46.18
62592;BME280;48659;41.622;2.276;2024-03-29T23:01:18;97883.50;;;14.71;51.27
62592;BME280;48659;41.622;2.276;2024-03-29T23:03:46;97879.35;;;14.67;52.27
62592;BME280;48659;41.622;2.276;2024-03-29T23:06:13;97882.59;;;14.49;52.44
62592;BME280;48659;41.622;2.276;2024-03-29T23:08:41;97883.85;;;17.23;46.91
62592;BME280;48659;41.622;2.276;2024-03-29T23:11:08;97886.98;;;17.31;45.39
62592;BME280;48659;41.622;2.276;2024-03-29T23:13:35;97885.27;;;18.04;44.15
62592;BME280;48659;41.622;2.276;2024-03-29T23:16:04;97887.16;;;17.87;44.55
62592;BME280;48659;41.622;2.276;2024-03-29T23:18:31;97877.22;;;17.99;44.30
62592;BME280;48659;41.622;2.276;2024-03-29T23:20:59;97875.66;;;17.88;44.78
62592;BME280;48659;41.622;2.276;2024-03-29T23:23:26;97883.65;;;17.90;45.42
62592;BME280;48659;41.622;2.276;2024-03-29T23:25:53;97886.19;;;17.49;45.59
62592;BME280;48659;41.622;2.276;2024-03-29T23:28:21;97883.48;;;17.44;45.72
62592;BME280;48659;41.622;2.276;2024-03-29T23:30:50;97889.02;;;17.75;45.49
62592;BME280;48659;41.622;2.276;2024-03-29T23:33:18;97888.54;;;17.72;45.49
62592;BME280;48659;41.622;2.276;2024-03-29T23:35:51;97887.62;;;17.62;45.77
62592;BME280;48659;41.622;2.276;2024-03-29T23:38:19;97884.50;;;17.59;46.32
62592;BME280;48659;41.622;2.276;2024-03-29T23:40:54;97886.56;;;17.04;47.37
62592;BME280;48659;41.622;2.276;2024-03-29T23:43:22;97895.31;;;16.45;47.32
62592;BME280;48659;41.622;2.276;2024-03-29T23:45:59;97897.65;;;16.58;47.22
62592;BME280;48659;41.622;2.276;2024-03-29T23:48:26;97898.54;;;17.53;45.61
62592;BME280;48659;41.622;2.276;2024-03-29T23:50:55;97903.75;;;17.30;45.37
62592;BME280;48659;41.622;2.276;2024-03-29T23:53:23;97908.89;;;17.33;45.49
62592;BME280;48659;41.622;2.276;2024-03-29T23:55:57;97906.07;;;17.35;45.28
62592;BME280;48659;41.622;2.276;2024-03-29T23:58:26;97904.08;;;16.69;45.44
